Time;durP1;ratioP1;P1;durP2;ratioP2;P2;SDS_P1;SDS_P2;PMS_P1;PMS_P2;Temp;Humidity;BMP_temperature;BMP_pressure;BME280_temperature;BME280_humidity;BME280_pressure;Samples;Min_cycle;Max_cycle;Signal;HPM_P1;HPM_P2
2021/12/11 00:00:40;;;;;;;53.75;32.45;;;1.40;99.90;;;;;;5093345;28;20070;-61
2021/12/11 00:03:17;;;;;;;53.33;32.53;;;1.30;99.90;;;;;;5087992;28;20031;-60
2021/12/11 00:05:50;;;;;;;52.78;32.97;;;1.40;99.90;;;;;;5092274;28;20590;-61
2021/12/11 00:08:21;;;;;;;55.75;32.60;;;1.40;99.90;;;;;;5092946;28;20032;-61
2021/12/11 00:10:53;;;;;;;59.08;34.47;;;1.30;99.90;;;;;;5092091;28;20020;-61
2021/12/11 00:13:28;;;;;;;52.53;32.67;;;1.40;99.90;;;;;;5092900;28;20287;-60
2021/12/11 00:15:54;;;;;;;52.92;32.22;;;1.40;99.90;;;;;;5089008;28;20024;-61
2021/12/11 00:18:24;;;;;;;54.42;32.92;;;1.40;99.90;;;;;;5091545;28;20028;-61
2021/12/11 00:20:59;;;;;;;57.53;32.97;;;1.40;99.90;;;;;;5092103;28;20020;-61
2021/12/11 00:23:33;;;;;;;56.85;33.95;;;1.40;99.90;;;;;;5091235;28;20350;-61
2021/12/11 00:26:00;;;;;;;57.58;33.42;;;1.30;99.90;;;;;;5092042;28;20016;-61
2021/12/11 00:28:25;;;;;;;58.78;33.70;;;1.30;99.90;;;;;;5092626;28;20016;-61
2021/12/11 00:30:52;;;;;;;55.83;34.10;;;1.40;99.90;;;;;;5091914;28;20352;-61
2021/12/11 00:33:23;;;;;;;58.63;35.92;;;1.30;99.90;;;;;;5091848;28;20036;-61
2021/12/11 00:35:50;;;;;;;56.50;33.58;;;1.40;99.90;;;;;;5090949;28;20020;-58
2021/12/11 00:38:21;;;;;;;54.83;33.72;;;1.40;99.90;;;;;;5092432;28;20035;-60
2021/12/11 00:40:48;;;;;;;56.30;33.55;;;1.40;99.90;;;;;;5092587;28;20020;-61
2021/12/11 00:43:20;;;;;;;60.28;34.88;;;1.40;99.90;;;;;;5092611;28;20035;-61
2021/12/11 00:45:48;;;;;;;56.38;35.53;;;1.40;99.90;;;;;;5092383;28;20016;-60
2021/12/11 00:48:20;;;;;;;59.72;34.85;;;1.40;99.90;;;;;;5092523;28;20024;-61
2021/12/11 00:50:52;;;;;;;58.78;34.13;;;1.40;99.90;;;;;;5092517;28;20019;-61
2021/12/11 00:53:29;;;;;;;57.17;33.47;;;1.40;99.90;;;;;;5092221;28;20024;-61
2021/12/11 00:56:02;;;;;;;64.32;36.33;;;1.30;99.90;;;;;;5091862;28;20146;-61
2021/12/11 00:58:34;;;;;;;60.10;34.85;;;1.30;99.90;;;;;;5092459;28;20035;-61
2021/12/11 01:01:13;;;;;;;64.70;35.30;;;1.40;99.90;;;;;;5091409;28;20020;-60
2021/12/11 01:03:41;;;;;;;61.78;35.03;;;1.40;99.90;;;;;;5090450;28;20513;-62
2021/12/11 01:06:14;;;;;;;61.60;35.17;;;1.40;99.90;;;;;;5091343;28;20456;-60
2021/12/11 01:08:44;;;;;;;58.88;34.38;;;1.40;99.90;;;;;;5092273;28;20020;-61
2021/12/11 01:11:36;;;;;;;60.17;34.45;;;1.40;99.90;;;;;;5091976;28;20718;-60
2021/12/11 01:14:38;;;;;;;60.13;34.88;;;1.40;99.90;;;;;;5091622;28;20065;-61
2021/12/11 01:17:12;;;;;;;61.03;34.88;;;1.30;99.90;;;;;;5081351;28;20100;-60
2021/12/11 01:19:41;;;;;;;63.85;36.50;;;1.30;99.90;;;;;;5071881;28;20039;-61
2021/12/11 01:22:23;;;;;;;59.40;34.88;;;1.40;99.90;;;;;;5071306;28;20024;-61
2021/12/11 01:24:52;;;;;;;63.78;36.15;;;1.40;99.90;;;;;;5071978;28;20071;-60
2021/12/11 01:27:25;;;;;;;63.88;37.08;;;1.40;99.90;;;;;;5071883;28;20021;-61
2021/12/11 01:29:56;;;;;;;68.20;38.92;;;1.40;99.90;;;;;;5071881;28;20020;-60
2021/12/11 01:32:23;;;;;;;66.40;37.65;;;1.40;99.90;;;;;;5071942;28;20086;-61
2021/12/11 01:34:49;;;;;;;67.07;38.15;;;1.40;99.90;;;;;;5071768;28;20115;-63
2021/12/11 01:37:16;;;;;;;71.90;38.22;;;1.40;99.90;;;;;;5071160;28;20052;-60
2021/12/11 01:39:42;;;;;;;75.18;39.33;;;1.30;99.90;;;;;;5071501;28;20338;-61
2021/12/11 01:42:21;;;;;;;68.93;38.75;;;1.30;99.90;;;;;;5070727;28;20025;-61
2021/12/11 01:44:49;;;;;;;68.65;39.45;;;1.30;99.90;;;;;;5071493;28;20029;-60
2021/12/11 01:47:24;;;;;;;67.82;38.97;;;1.30;99.90;;;;;;5070516;28;20068;-60
2021/12/11 01:49:57;;;;;;;71.20;35.70;;;1.30;99.90;;;;;;5071906;28;20021;-60
2021/12/11 01:52:38;;;;;;;66.95;35.67;;;1.40;99.90;;;;;;5071496;28;20445;-60
2021/12/11 01:55:22;;;;;;;68.30;36.85;;;1.40;99.90;;;;;;5070939;28;20027;-60
2021/12/11 01:57:51;;;;;;;67.68;37.17;;;1.40;99.90;;;;;;5071611;28;20356;-61
2021/12/11 02:00:27;;;;;;;73.10;36.80;;;1.40;99.90;;;;;;5070819;28;20035;-61
2021/12/11 02:02:55;;;;;;;69.50;35.50;;;1.30;99.90;;;;;;5071447;28;20033;-62
2021/12/11 02:05:25;;;;;;;64.97;35.92;;;1.30;99.90;;;;;;5071606;28;20040;-60
2021/12/11 02:07:54;;;;;;;69.07;35.10;;;1.30;99.90;;;;;;5071538;28;20017;-62
2021/12/11 02:10:40;;;;;;;67.07;34.97;;;1.30;99.90;;;;;;5071042;28;20388;-61
2021/12/11 02:13:11;;;;;;;64.72;35.22;;;1.40;99.90;;;;;;5070551;28;20032;-61
2021/12/11 02:15:45;;;;;;;66.22;35.38;;;1.30;99.90;;;;;;5073476;28;20024;-60
2021/12/11 02:18:33;;;;;;;66.25;33.13;;;1.30;99.90;;;;;;5074406;28;20033;-61
2021/12/11 02:21:23;;;;;;;64.45;33.08;;;1.30;99.90;;;;;;5074408;28;20468;-61
2021/12/11 02:24:14;;;;;;;70.63;35.38;;;1.30;99.90;;;;;;5074817;28;20036;-62
2021/12/11 02:26:42;;;;;;;67.80;33.85;;;1.30;99.90;;;;;;5077402;28;20020;-61
2021/12/11 02:29:23;;;;;;;70.05;37.80;;;1.30;99.90;;;;;;5073901;28;20078;-61
2021/12/11 02:31:51;;;;;;;66.55;33.05;;;1.30;99.90;;;;;;5074777;28;20016;-61
2021/12/11 02:34:23;;;;;;;63.97;33.08;;;1.30;99.90;;;;;;5074070;28;20110;-61
2021/12/11 02:37:01;;;;;;;68.82;34.30;;;1.30;99.90;;;;;;5074576;28;20116;-61
2021/12/11 02:39:37;;;;;;;65.57;34.25;;;1.30;99.90;;;;;;5074594;28;20120;-61
2021/12/11 02:42:24;;;;;;;71.55;35.40;;;1.30;99.90;;;;;;5074067;28;20032;-61
2021/12/11 02:45:01;;;;;;;69.47;35.45;;;1.30;99.90;;;;;;5074561;28;20036;-61
2021/12/11 02:47:37;;;;;;;72.72;34.78;;;1.30;99.90;;;;;;5074628;28;20045;-61
2021/12/11 02:50:18;;;;;;;70.18;35.03;;;1.30;99.90;;;;;;5073908;28;20361;-61
2021/12/11 02:52:46;;;;;;;71.55;36.58;;;1.30;99.90;;;;;;5074407;28;20020;-60
2021/12/11 02:55:19;;;;;;;80.57;39.33;;;1.30;99.90;;;;;;5074111;28;20158;-61
2021/12/11 02:58:10;;;;;;;80.32;39.88;;;1.30;99.90;;;;;;5074393;28;20100;-61
2021/12/11 03:00:42;;;;;;;80.80;40.17;;;1.30;99.90;;;;;;5063271;28;20056;-61
2021/12/11 03:03:14;;;;;;;87.72;41.72;;;1.20;99.90;;;;;;5073478;28;20032;-60
2021/12/11 03:06:00;;;;;;;88.88;41.20;;;1.20;99.90;;;;;;5074244;28;20403;-60
2021/12/11 03:08:25;;;;;;;86.45;41.10;;;1.30;99.90;;;;;;5074268;28;20020;-60
2021/12/11 03:10:55;;;;;;;90.57;42.67;;;1.20;99.90;;;;;;5074059;28;20023;-61
2021/12/11 03:13:23;;;;;;;82.88;38.85;;;1.20;99.90;;;;;;5073525;28;20029;-61
2021/12/11 03:15:49;;;;;;;88.57;41.00;;;1.20;99.90;;;;;;5073672;28;20519;-59
2021/12/11 03:18:16;;;;;;;91.47;41.20;;;1.20;99.90;;;;;;5073330;28;20445;-61
2021/12/11 03:20:44;;;;;;;84.85;40.20;;;1.20;99.90;;;;;;5074326;28;20082;-61
2021/12/11 03:23:11;;;;;;;83.65;39.78;;;1.20;99.90;;;;;;5080943;28;20444;-61
2021/12/11 03:25:39;;;;;;;82.90;39.90;;;1.10;99.90;;;;;;5094366;28;20031;-61
2021/12/11 03:28:07;;;;;;;90.78;42.63;;;1.20;99.90;;;;;;5092832;28;20020;-61
2021/12/11 03:30:37;;;;;;;86.78;40.95;;;1.20;99.90;;;;;;5093915;28;20027;-61
2021/12/11 03:33:11;;;;;;;82.40;38.47;;;1.20;99.90;;;;;;5093325;28;20028;-61
2021/12/11 03:35:37;;;;;;;87.88;40.17;;;1.10;99.90;;;;;;5093943;28;20476;-61
2021/12/11 03:38:04;;;;;;;80.60;38.38;;;1.20;99.90;;;;;;5093326;28;20028;-61
2021/12/11 03:40:31;;;;;;;91.13;40.45;;;1.20;99.90;;;;;;5093719;28;20016;-61
2021/12/11 03:42:59;;;;;;;89.45;40.45;;;1.10;99.90;;;;;;5093646;28;20218;-61
2021/12/11 03:45:31;;;;;;;87.90;40.38;;;1.10;99.90;;;;;;5093060;28;20024;-61
2021/12/11 03:48:10;;;;;;;83.30;39.38;;;1.20;99.90;;;;;;5093752;28;20044;-61
2021/12/11 03:50:36;;;;;;;78.57;36.50;;;1.10;99.90;;;;;;5092286;28;20052;-61
2021/12/11 03:53:03;;;;;;;90.15;38.38;;;1.20;99.90;;;;;;5093590;28;20024;-61
2021/12/11 03:55:36;;;;;;;89.55;39.25;;;1.20;99.90;;;;;;5093512;28;20074;-61
2021/12/11 03:58:04;;;;;;;88.07;38.63;;;1.20;99.90;;;;;;5093164;28;20419;-61
2021/12/11 04:00:48;;;;;;;90.90;39.22;;;1.20;99.90;;;;;;5093330;28;20027;-61
2021/12/11 04:03:17;;;;;;;93.60;41.03;;;1.20;99.90;;;;;;5092743;28;20027;-61
2021/12/11 04:05:44;;;;;;;85.32;39.13;;;1.20;99.90;;;;;;5093740;28;20035;-61
2021/12/11 04:08:14;;;;;;;87.47;37.78;;;1.20;99.90;;;;;;5092553;28;20031;-61
2021/12/11 04:10:40;;;;;;;90.22;38.20;;;1.20;99.90;;;;;;5092866;28;20050;-61
2021/12/11 04:13:09;;;;;;;98.60;41.00;;;1.20;99.90;;;;;;5092643;28;20400;-61
2021/12/11 04:15:39;;;;;;;88.22;39.03;;;1.20;99.90;;;;;;5093087;28;20468;-60
2021/12/11 04:18:06;;;;;;;85.32;39.50;;;1.20;99.90;;;;;;5092892;28;20475;-60
2021/12/11 04:20:36;;;;;;;82.25;37.65;;;1.20;99.90;;;;;;5093010;28;20047;-60
2021/12/11 04:23:03;;;;;;;78.95;37.30;;;1.20;99.90;;;;;;5093006;28;20020;-60
2021/12/11 04:25:29;;;;;;;77.20;36.13;;;1.20;99.90;;;;;;5092057;28;20055;-61
2021/12/11 04:27:56;;;;;;;78.95;38.03;;;1.20;99.90;;;;;;5092660;28;20077;-60
2021/12/11 04:30:23;;;;;;;80.22;37.50;;;1.20;99.90;;;;;;5092337;28;20024;-60
2021/12/11 04:32:51;;;;;;;77.30;37.95;;;1.20;99.90;;;;;;5090686;28;20035;-61
2021/12/11 04:35:17;;;;;;;74.22;35.15;;;1.30;99.90;;;;;;5091211;28;20016;-60
2021/12/11 04:37:43;;;;;;;71.60;34.85;;;1.30;99.90;;;;;;5092403;28;20446;-64
2021/12/11 04:40:17;;;;;;;72.55;35.90;;;1.30;99.90;;;;;;5091648;28;20012;-60
2021/12/11 04:45:16;;;;;;;68.30;34.67;;;1.30;99.90;;;;;;5092090;28;20028;-61
2021/12/11 04:47:49;;;;;;;66.63;34.05;;;1.30;99.90;;;;;;5092054;28;20036;-62
2021/12/11 04:50:39;;;;;;;63.63;33.95;;;1.40;99.90;;;;;;5092078;28;20024;-62
2021/12/11 04:53:19;;;;;;;66.40;34.35;;;1.40;99.90;;;;;;5092678;28;20024;-61
2021/12/11 05:09:16;;;;;;;63.47;34.10;;;1.40;99.90;;;;;;5092283;28;20077;-61
2021/12/11 05:11:53;;;;;;;66.88;36.22;;;1.40;99.90;;;;;;5092344;28;20103;-61
2021/12/11 05:14:23;;;;;;;67.55;34.75;;;1.40;99.90;;;;;;5091711;28;20028;-62
2021/12/11 05:16:49;;;;;;;68.30;34.30;;;1.50;99.90;;;;;;5092425;28;20024;-61
2021/12/11 05:19:15;;;;;;;65.05;34.58;;;1.50;99.90;;;;;;5091581;28;20103;-61
2021/12/11 05:21:41;;;;;;;65.85;34.88;;;1.50;99.90;;;;;;5091995;28;20047;-61
2021/12/11 05:24:08;;;;;;;64.88;34.05;;;1.50;99.90;;;;;;5092202;28;20104;-61
2021/12/11 05:26:36;;;;;;;64.05;33.75;;;1.50;99.90;;;;;;5091243;28;20456;-63
2021/12/11 05:29:02;;;;;;;60.08;31.80;;;1.50;99.90;;;;;;5090399;28;20043;-61
2021/12/11 05:31:28;;;;;;;63.50;33.20;;;1.50;99.90;;;;;;5071787;28;20017;-61
2021/12/11 05:33:54;;;;;;;59.72;31.35;;;1.50;99.90;;;;;;5071905;28;20029;-61
2021/12/11 05:36:21;;;;;;;62.20;33.10;;;1.50;99.90;;;;;;5071223;28;20025;-61
2021/12/11 05:38:48;;;;;;;65.28;32.15;;;1.50;99.90;;;;;;5071482;28;20472;-61
2021/12/11 05:41:16;;;;;;;61.88;32.40;;;1.50;99.90;;;;;;5070759;28;20389;-61
2021/12/11 05:43:43;;;;;;;60.60;32.50;;;1.50;99.90;;;;;;5071707;28;20056;-61
2021/12/11 05:46:11;;;;;;;60.20;32.00;;;1.50;99.90;;;;;;5071184;28;20091;-60
2021/12/11 05:48:37;;;;;;;55.65;30.83;;;1.50;99.90;;;;;;5071179;28;20075;-60
2021/12/11 05:51:06;;;;;;;60.33;32.45;;;1.50;99.90;;;;;;5074472;28;20024;-60
2021/12/11 05:53:33;;;;;;;62.47;31.25;;;1.60;99.90;;;;;;5074678;28;20056;-60
2021/12/11 05:56:05;;;;;;;59.45;30.83;;;1.50;99.90;;;;;;5075491;28;20411;-60
2021/12/11 06:01:19;;;;;;;57.53;30.92;;;1.60;99.90;;;;;;5074598;28;20028;-61
2021/12/11 06:03:45;;;;;;;60.95;30.90;;;1.50;99.90;;;;;;5075302;28;20127;-61
2021/12/11 06:06:11;;;;;;;57.38;31.83;;;1.60;99.90;;;;;;5075252;28;20052;-62
2021/12/11 06:08:37;;;;;;;60.05;33.05;;;1.50;99.90;;;;;;5074677;28;20375;-60
2021/12/11 06:11:04;;;;;;;62.63;33.58;;;1.60;99.90;;;;;;5075166;28;20056;-61
2021/12/11 06:13:30;;;;;;;64.03;33.00;;;1.60;99.90;;;;;;5074412;28;20029;-61
2021/12/11 06:15:57;;;;;;;57.17;31.60;;;1.60;99.90;;;;;;5075142;28;20087;-61
2021/12/11 06:18:24;;;;;;;58.75;30.80;;;1.60;99.90;;;;;;5074467;28;20021;-60
2021/12/11 06:20:50;;;;;;;59.22;32.30;;;1.60;99.90;;;;;;5075018;28;20115;-60
2021/12/11 06:23:17;;;;;;;60.92;33.85;;;1.60;99.90;;;;;;5074279;28;20029;-61
2021/12/11 06:25:43;;;;;;;59.92;31.52;;;1.60;99.90;;;;;;5075279;28;20028;-60
2021/12/11 06:28:09;;;;;;;58.05;32.75;;;1.60;99.90;;;;;;5075014;28;20020;-60
2021/12/11 06:30:37;;;;;;;58.63;32.85;;;1.60;99.90;;;;;;5074276;28;20444;-60
2021/12/11 06:33:03;;;;;;;60.33;31.88;;;1.60;99.90;;;;;;5074964;28;20040;-60
2021/12/11 06:35:46;;;;;;;63.17;33.63;;;1.60;99.90;;;;;;5074191;28;20021;-60
2021/12/11 06:38:16;;;;;;;57.30;32.13;;;1.60;99.90;;;;;;5074917;28;20028;-60
2021/12/11 06:40:42;;;;;;;59.90;33.00;;;1.70;99.90;;;;;;5077074;28;20507;-61
2021/12/11 06:43:09;;;;;;;60.42;33.13;;;1.70;99.90;;;;;;5074342;28;20346;-60
2021/12/11 06:45:35;;;;;;;58.75;33.65;;;1.70;99.90;;;;;;5073771;28;20044;-61
2021/12/11 06:48:01;;;;;;;62.13;34.78;;;1.70;99.90;;;;;;5074669;28;20048;-60
2021/12/11 06:50:26;;;;;;;61.63;34.13;;;1.70;99.90;;;;;;5077606;28;20024;-60
2021/12/11 06:52:54;;;;;;;60.03;31.58;;;1.70;99.90;;;;;;5082067;28;20107;-60
2021/12/11 06:55:21;;;;;;;55.70;32.17;;;1.70;99.90;;;;;;5073630;28;20027;-60
2021/12/11 06:57:48;;;;;;;59.80;33.15;;;1.70;99.90;;;;;;5074428;28;20021;-60
2021/12/11 07:00:16;;;;;;;59.47;32.95;;;1.70;99.90;;;;;;5079639;28;20031;-60
2021/12/11 07:02:42;;;;;;;61.35;33.00;;;1.80;99.90;;;;;;5080407;28;20558;-60
2021/12/11 07:05:08;;;;;;;58.08;32.72;;;1.80;99.90;;;;;;5080863;28;20056;-60
2021/12/11 07:07:35;;;;;;;59.88;33.53;;;1.80;99.90;;;;;;5073598;28;20357;-60
2021/12/11 07:10:04;;;;;;;62.00;32.83;;;1.80;99.90;;;;;;5078718;28;20024;-61
2021/12/11 07:12:30;;;;;;;57.10;33.58;;;1.80;99.90;;;;;;5076151;28;20067;-61
2021/12/11 07:14:55;;;;;;;58.40;33.30;;;1.80;99.90;;;;;;5073966;28;20025;-61
2021/12/11 07:17:21;;;;;;;59.17;32.75;;;1.90;99.90;;;;;;5072108;28;20050;-62
2021/12/11 07:19:47;;;;;;;56.85;33.13;;;1.90;99.90;;;;;;5074663;28;20476;-62
2021/12/11 07:22:15;;;;;;;65.80;34.15;;;1.90;99.90;;;;;;5091726;28;20044;-61
2021/12/11 07:24:53;;;;;;;62.30;33.60;;;1.90;99.90;;;;;;5093484;28;20032;-62
2021/12/11 07:27:19;;;;;;;57.55;32.28;;;1.90;99.90;;;;;;5094745;28;20020;-61
2021/12/11 07:29:45;;;;;;;59.83;32.72;;;1.90;99.90;;;;;;5092019;28;20111;-61
2021/12/11 07:32:11;;;;;;;60.20;33.53;;;1.90;99.90;;;;;;5093997;28;20024;-60
2021/12/11 07:34:38;;;;;;;63.00;33.28;;;1.90;99.90;;;;;;5093222;28;20081;-61
2021/12/11 07:37:05;;;;;;;63.58;34.40;;;1.90;99.90;;;;;;5093556;28;20060;-61
2021/12/11 07:39:31;;;;;;;61.42;33.83;;;2.00;99.90;;;;;;5093225;28;20398;-61
2021/12/11 07:41:58;;;;;;;63.58;34.88;;;1.90;99.90;;;;;;5093515;28;20519;-61
2021/12/11 07:44:25;;;;;;;63.33;35.25;;;1.90;99.90;;;;;;5092920;28;20065;-62
2021/12/11 07:46:52;;;;;;;60.35;33.70;;;1.90;99.90;;;;;;5093448;28;20051;-61
2021/12/11 07:49:19;;;;;;;63.50;34.35;;;1.90;99.90;;;;;;5089089;28;20089;-61
2021/12/11 07:51:45;;;;;;;64.40;33.45;;;1.90;99.90;;;;;;5092677;28;20047;-61
2021/12/11 07:54:11;;;;;;;63.70;35.00;;;1.90;99.90;;;;;;5093382;28;20437;-60
2021/12/11 07:56:38;;;;;;;64.63;35.03;;;1.90;99.90;;;;;;5092560;28;20065;-60
2021/12/11 07:59:06;;;;;;;64.10;35.45;;;1.90;99.90;;;;;;5093409;28;20024;-61
2021/12/11 08:01:36;;;;;;;68.93;34.95;;;1.90;99.90;;;;;;5092482;28;20067;-61
2021/12/11 08:04:04;;;;;;;70.68;35.03;;;1.90;99.90;;;;;;5092657;28;20127;-60
2021/12/11 08:06:31;;;;;;;67.22;35.35;;;1.90;99.90;;;;;;5092337;28;20421;-60
2021/12/11 08:08:57;;;;;;;69.82;34.08;;;1.90;99.90;;;;;;5093241;28;20027;-60
2021/12/11 08:11:28;;;;;;;62.05;34.95;;;1.90;99.90;;;;;;5074861;28;20028;-60
2021/12/11 08:13:54;;;;;;;65.25;34.85;;;1.80;99.90;;;;;;5092811;28;20089;-60
2021/12/11 08:16:24;;;;;;;69.30;35.60;;;1.90;99.90;;;;;;5092946;28;20028;-61
2021/12/11 08:18:52;;;;;;;67.63;34.60;;;1.80;99.90;;;;;;5092552;28;20028;-61
2021/12/11 08:21:18;;;;;;;67.95;35.45;;;1.80;99.90;;;;;;5092687;28;20016;-61
2021/12/11 08:23:46;;;;;;;67.03;35.13;;;1.80;99.90;;;;;;5091465;28;20028;-61
2021/12/11 08:26:15;;;;;;;71.13;34.55;;;1.80;99.90;;;;;;5092739;28;20031;-61
2021/12/11 08:28:41;;;;;;;69.03;34.78;;;1.80;99.90;;;;;;5092149;28;20023;-61
2021/12/11 08:31:07;;;;;;;67.82;36.08;;;1.80;99.90;;;;;;5089277;28;20051;-61
2021/12/11 08:33:33;;;;;;;70.75;35.00;;;1.80;99.90;;;;;;5092022;28;20047;-61
2021/12/11 08:36:00;;;;;;;74.70;35.72;;;1.80;99.90;;;;;;5092491;28;20047;-61
2021/12/11 08:38:27;;;;;;;75.25;36.72;;;1.80;99.90;;;;;;5090977;28;20020;-60
2021/12/11 08:40:56;;;;;;;68.53;35.78;;;1.70;99.90;;;;;;5091024;28;20035;-61
2021/12/11 08:43:23;;;;;;;66.70;34.63;;;1.80;99.90;;;;;;5072232;28;20449;-61
2021/12/11 08:46:22;;;;;;;69.40;35.75;;;1.70;99.90;;;;;;5071187;28;20376;-60
2021/12/11 08:48:46;;;;;;;73.00;35.42;;;1.70;99.90;;;;;;5074398;28;20123;-60
2021/12/11 08:51:25;;;;;;;73.45;36.22;;;1.80;99.90;;;;;;5092447;28;20429;-61
2021/12/11 08:53:51;;;;;;;70.68;36.22;;;1.80;99.90;;;;;;5091554;28;20031;-60
2021/12/11 08:56:18;;;;;;;75.65;37.28;;;1.80;99.90;;;;;;5091843;28;20040;-60
2021/12/11 08:58:45;;;;;;;72.28;35.28;;;1.80;99.90;;;;;;5091478;28;20055;-60
2021/12/11 09:01:30;;;;;;;76.55;36.05;;;1.80;99.90;;;;;;5092016;28;20024;-60
2021/12/11 09:04:12;;;;;;;70.57;35.83;;;1.80;99.90;;;;;;5091956;28;20035;-61
2021/12/11 09:06:42;;;;;;;73.35;36.17;;;1.80;99.90;;;;;;5091567;28;20020;-61
2021/12/11 09:09:20;;;;;;;76.45;36.88;;;1.80;99.90;;;;;;5090962;28;20107;-61
2021/12/11 09:11:52;;;;;;;72.35;35.95;;;1.90;99.90;;;;;;5091052;28;20177;-61
2021/12/11 09:14:44;;;;;;;75.47;36.53;;;1.80;99.90;;;;;;5091881;28;20038;-61
2021/12/11 09:17:36;;;;;;;75.00;36.08;;;1.80;99.90;;;;;;5075101;28;20046;-61
2021/12/11 09:20:02;;;;;;;72.47;35.30;;;1.80;99.90;;;;;;5071789;28;20056;-61
2021/12/11 09:22:46;;;;;;;75.55;37.10;;;1.80;99.90;;;;;;5071583;28;20056;-61
2021/12/11 09:25:34;;;;;;;70.13;35.25;;;1.80;99.90;;;;;;5073336;28;20025;-61
2021/12/11 09:28:08;;;;;;;73.55;36.05;;;1.80;99.90;;;;;;5075420;28;20029;-60
2021/12/11 09:30:57;;;;;;;76.05;35.70;;;1.80;99.90;;;;;;5075560;28;20032;-60
2021/12/11 09:33:32;;;;;;;72.45;35.80;;;1.90;99.90;;;;;;5074927;28;20036;-60
2021/12/11 09:36:07;;;;;;;74.35;35.10;;;1.90;99.90;;;;;;5075708;28;20020;-61
2021/12/11 09:38:40;;;;;;;70.05;35.75;;;1.90;99.90;;;;;;5075220;28;20028;-62
2021/12/11 09:41:21;;;;;;;75.80;36.63;;;2.00;99.90;;;;;;5075720;28;20052;-61
2021/12/11 09:43:58;;;;;;;77.78;37.67;;;2.00;99.90;;;;;;5074647;28;20142;-61
2021/12/11 09:46:35;;;;;;;74.05;36.15;;;2.00;99.90;;;;;;5075020;28;20048;-61
2021/12/11 09:49:03;;;;;;;68.47;35.95;;;2.00;99.90;;;;;;5075777;28;20013;-61
2021/12/11 09:51:36;;;;;;;77.85;38.42;;;2.10;99.90;;;;;;5075233;28;20437;-61
2021/12/11 09:54:08;;;;;;;71.03;36.92;;;2.10;99.90;;;;;;5074967;28;20032;-60
2021/12/11 09:56:44;;;;;;;71.72;37.05;;;2.10;99.90;;;;;;5081467;28;20488;-60
2021/12/11 09:59:13;;;;;;;69.10;36.90;;;2.20;99.90;;;;;;5095206;28;20016;-61
2021/12/11 10:01:43;;;;;;;146.98;52.10;;;2.20;99.90;;;;;;5094737;28;20066;-60
2021/12/11 10:04:31;;;;;;;105.75;43.40;;;2.30;99.90;;;;;;5095327;28;20021;-61
2021/12/11 10:08:00;;;;;;;84.15;40.03;;;2.30;99.90;;;;;;5094732;28;20027;-61
2021/12/11 10:09:51;;;;;;;74.25;37.53;;;2.30;99.90;;;;;;5083264;28;20064;-60
2021/12/11 10:12:21;;;;;;;69.10;36.45;;;2.30;99.90;;;;;;5095443;28;20032;-61
2021/12/11 10:14:52;;;;;;;68.68;36.53;;;2.30;99.90;;;;;;5094572;28;20028;-61
2021/12/11 10:17:21;;;;;;;73.30;36.75;;;2.30;99.90;;;;;;5094730;28;20456;-61
2021/12/11 10:19:50;;;;;;;71.35;38.45;;;2.30;99.90;;;;;;5094420;28;20020;-62
2021/12/11 10:22:24;;;;;;;72.38;37.13;;;2.40;99.90;;;;;;5095120;28;20054;-61
2021/12/11 10:24:51;;;;;;;69.85;36.30;;;2.40;99.90;;;;;;5079185;28;20016;-61
2021/12/11 10:27:20;;;;;;;65.88;36.05;;;2.40;99.90;;;;;;5081480;28;20020;-61
2021/12/11 10:29:46;;;;;;;72.95;37.38;;;2.30;99.90;;;;;;5079135;28;20059;-62
2021/12/11 10:32:17;;;;;;;66.30;35.47;;;2.40;99.90;;;;;;5075631;28;20455;-61
2021/12/11 10:34:47;;;;;;;67.13;36.35;;;2.40;99.90;;;;;;5088555;28;20092;-61
2021/12/11 10:37:26;;;;;;;66.13;35.47;;;2.40;99.90;;;;;;5082626;28;20023;-61
2021/12/11 10:39:55;;;;;;;64.50;35.28;;;2.40;99.90;;;;;;5078274;28;20024;-61
2021/12/11 10:42:21;;;;;;;63.55;34.42;;;2.40;99.90;;;;;;5090680;28;20079;-60
2021/12/11 10:44:51;;;;;;;64.65;35.30;;;2.40;99.90;;;;;;5072481;28;20107;-60
2021/12/11 10:47:27;;;;;;;65.43;34.65;;;2.40;99.90;;;;;;5074762;28;20082;-60
2021/12/11 10:49:53;;;;;;;69.70;36.03;;;2.40;99.90;;;;;;5077496;28;20036;-61
2021/12/11 10:52:19;;;;;;;69.25;37.20;;;2.40;99.90;;;;;;5083046;28;20398;-61
2021/12/11 10:54:47;;;;;;;69.10;36.17;;;2.40;99.90;;;;;;5083512;28;20047;-60
2021/12/11 10:57:15;;;;;;;65.88;36.28;;;2.40;99.90;;;;;;5085046;28;20021;-61
2021/12/11 10:59:42;;;;;;;69.32;36.88;;;2.40;99.90;;;;;;5087177;28;20020;-61
2021/12/11 11:02:20;;;;;;;67.53;37.33;;;2.40;99.90;;;;;;5094074;28;20059;-62
2021/12/11 11:04:59;;;;;;;67.35;36.50;;;2.40;99.90;;;;;;5093655;28;20027;-62
2021/12/11 11:07:27;;;;;;;63.97;34.55;;;2.40;99.90;;;;;;5083751;28;20051;-61
2021/12/11 11:09:56;;;;;;;63.70;36.40;;;2.40;99.90;;;;;;5091112;28;20020;-62
2021/12/11 11:12:24;;;;;;;65.60;36.25;;;2.40;99.90;;;;;;5090055;28;20094;-61
2021/12/11 11:14:52;;;;;;;65.93;35.20;;;2.40;99.90;;;;;;5092474;28;20499;-60
2021/12/11 11:17:21;;;;;;;60.90;32.38;;;2.40;99.90;;;;;;5092525;28;20060;-61
2021/12/11 11:19:49;;;;;;;61.17;33.53;;;2.40;99.90;;;;;;5091586;28;20456;-61
2021/12/11 11:22:19;;;;;;;65.05;34.47;;;2.50;99.90;;;;;;5092357;28;20028;-60
2021/12/11 11:24:50;;;;;;;68.60;33.70;;;2.50;99.90;;;;;;5091781;28;20463;-60
2021/12/11 11:27:17;;;;;;;68.13;33.35;;;2.50;99.90;;;;;;5092576;28;20016;-60
2021/12/11 11:29:44;;;;;;;62.80;33.92;;;2.50;99.90;;;;;;5091776;28;20077;-61
2021/12/11 11:32:14;;;;;;;61.85;33.13;;;2.60;99.90;;;;;;5091683;28;20035;-61
2021/12/11 11:34:41;;;;;;;59.30;32.22;;;2.60;99.90;;;;;;5092383;28;20020;-61
2021/12/11 11:37:16;;;;;;;57.20;32.13;;;2.60;99.90;;;;;;5093132;28;20052;-61
2021/12/11 11:39:42;;;;;;;58.00;31.63;;;2.70;99.90;;;;;;5093379;28;20060;-61
2021/12/11 11:42:13;;;;;;;63.03;33.25;;;2.70;99.90;;;;;;5093517;28;20028;-61
2021/12/11 11:44:42;;;;;;;59.93;32.27;;;2.70;99.90;;;;;;5093230;28;20107;-61
2021/12/11 11:47:09;;;;;;;60.05;32.80;;;2.70;99.90;;;;;;5093064;28;20414;-61
2021/12/11 11:49:35;;;;;;;61.78;32.28;;;2.70;99.90;;;;;;5093187;28;20410;-61
2021/12/11 11:52:09;;;;;;;58.53;32.38;;;2.70;99.90;;;;;;5091288;28;20465;-60
2021/12/11 11:54:39;;;;;;;61.60;32.83;;;2.70;99.90;;;;;;5092078;28;20028;-61
2021/12/11 11:57:17;;;;;;;60.40;34.75;;;2.70;99.90;;;;;;5092424;28;20093;-61
2021/12/11 11:59:43;;;;;;;59.97;32.83;;;2.80;99.90;;;;;;5093287;28;20028;-61
2021/12/11 12:02:17;;;;;;;60.88;32.78;;;2.80;99.90;;;;;;5093173;28;20028;-62
2021/12/11 12:04:45;;;;;;;56.33;31.58;;;2.80;99.90;;;;;;5093119;28;20038;-61
2021/12/11 12:07:12;;;;;;;59.35;31.75;;;2.90;99.90;;;;;;5093027;28;20028;-62
2021/12/11 12:09:44;;;;;;;59.30;33.15;;;2.90;99.90;;;;;;5093072;28;20028;-61
2021/12/11 12:12:14;;;;;;;62.58;33.83;;;2.90;99.90;;;;;;5092817;28;20554;-61
2021/12/11 12:14:42;;;;;;;60.75;33.10;;;2.90;99.90;;;;;;5092963;28;20077;-61
2021/12/11 12:17:10;;;;;;;56.92;32.38;;;3.00;99.90;;;;;;5092239;28;20095;-62
2021/12/11 12:19:36;;;;;;;57.72;32.38;;;3.10;99.90;;;;;;5093145;28;20050;-62
2021/12/11 12:22:06;;;;;;;55.53;31.33;;;3.10;99.90;;;;;;5091825;28;20024;-61
2021/12/11 12:24:34;;;;;;;59.28;33.33;;;3.10;99.90;;;;;;5093036;28;20020;-59
2021/12/11 12:27:02;;;;;;;56.65;32.67;;;3.20;99.90;;;;;;5092144;28;20032;-60
2021/12/11 12:29:29;;;;;;;59.47;32.90;;;3.20;99.90;;;;;;5092688;28;20020;-61
2021/12/11 12:32:05;;;;;;;58.38;32.15;;;3.20;99.90;;;;;;5091949;28;20028;-61
2021/12/11 12:34:31;;;;;;;55.75;33.00;;;3.20;99.90;;;;;;5092515;28;20468;-62
2021/12/11 12:36:58;;;;;;;60.38;33.70;;;3.20;99.90;;;;;;5088986;28;20028;-62
2021/12/11 12:39:35;;;;;;;63.25;34.28;;;3.20;99.90;;;;;;5092478;28;20024;-61
2021/12/11 12:42:25;;;;;;;63.20;32.47;;;3.20;99.90;;;;;;5091916;28;20053;-61
2021/12/11 12:44:56;;;;;;;66.43;33.97;;;3.20;99.90;;;;;;5091764;28;20067;-61
2021/12/11 12:47:29;;;;;;;62.83;33.57;;;3.20;99.90;;;;;;5092582;28;20046;-61
2021/12/11 12:49:57;;;;;;;58.58;32.55;;;3.20;99.90;;;;;;5092070;28;20520;-62
2021/12/11 12:52:27;;;;;;;58.85;33.58;;;3.20;99.90;;;;;;5091380;28;20092;-61
2021/12/11 12:54:54;;;;;;;63.75;33.63;;;3.20;99.90;;;;;;5090671;28;20369;-61
2021/12/11 12:57:26;;;;;;;58.28;33.88;;;3.20;99.90;;;;;;5092372;28;20032;-61
2021/12/11 13:00:19;;;;;;;56.58;32.63;;;3.20;99.90;;;;;;5090952;28;20060;-61
2021/12/11 13:02:46;;;;;;;55.38;31.75;;;3.20;99.90;;;;;;5091945;28;20078;-61
2021/12/11 13:05:17;;;;;;;57.42;32.60;;;3.20;99.90;;;;;;5091493;28;20040;-61
2021/12/11 13:07:44;;;;;;;55.85;32.28;;;3.20;99.90;;;;;;5092258;28;20043;-61
2021/12/11 13:10:16;;;;;;;57.80;32.72;;;3.20;99.90;;;;;;5089981;28;20499;-60
2021/12/11 13:12:45;;;;;;;57.65;32.70;;;3.20;99.90;;;;;;5092209;28;20031;-61